1. Accueil
  2. Comparatif enneigement

Enneigement des stations de ski des Alpes du Sud

Station Dernière chute Etat de la neige Pistes ouvertes Niveau bas station Niveau haut station
L'Alpe d'Huez 17/04/24 Fraîche 46/135 0 cm 465 cm
Les 2 Alpes 17/04/24 De printemps 31/96 0 cm 340 cm
Serre Chevalier 11/04/24 NC 50/81 0 cm 280 cm
Auron 10/04/24 NC 0/43 50 cm 120 cm
Vars 05/04/24 NC 46/115 70 cm 230 cm
SuperDévoluy - La Joue du Loup 02/04/24 NC 0/55 0 cm 0 cm
Montgenèvre 01/04/24 NC 20/74 190 cm 320 cm
Les Orres 01/04/24 NC 0/37 50 cm 180 cm
Puy Saint Vincent 31/03/24 NC 22/35 40 cm 382 cm
Valberg 31/03/24 NC 0/56 130 cm 0 cm
Isola 2000 31/03/24 De printemps 34/42 249 cm 310 cm
Risoul 31/03/24 NC 32/115 100 cm 230 cm
Crévoux 28/03/24 printemps 11/16 30 cm 230 cm
Orcières Merlette 27/03/24 NC 0/51 80 cm 215 cm
Pelvoux 18/03/24 printemps 0/18 0 cm 0 cm
St Léger les Mélèzes 10/03/24 HUMIDE 8/16 40 cm 150 cm
Chabanon Selonnet 10/03/24 Fraîche 0/35 80 cm 80 cm
Réallon 10/03/24 Neige de printemps 10/13 10 cm 150 cm
Chaillol 10/03/24 DOUCE 10/13 70 cm 160 cm
Ancelle 10/03/24 0/20 0 cm 0 cm
Laye 10/03/24 0/12 10 cm 30 cm
Abries - Ristolas 10/03/24 DOUCE 10/17 70 cm 160 cm
Saint Jean Montclar 10/03/24 De printemps 0/33 25 cm 105 cm
Arvieux 29/02/24 dure 13/14 50 cm 100 cm
Aiguilles 29/02/24 dure 0/6 40 cm 40 cm
Molines - St Véran 29/02/24 dure 22/29 40 cm 90 cm
Ceillac 29/02/24 dure 14/14 50 cm 90 cm
Le Grand Puy - Seyne les Alpes 26/02/24 Fraiche 9/13 40 cm 60 cm
L'Audibergue non disponible NC 0/23 0 cm 5 cm
Gréolières non disponible Dammée 5/21 20 cm 0 cm
Mont Ventoux - Mont Serein non disponible 0/16 0 cm 0 cm
Roubion non disponible Station ouverte 12/21 40 cm 40 cm
Pra Loup non disponible Douce 21/50 15 cm 150 cm
Val Pelens non disponible Station fermée 0/7 0 cm 0 cm
Mont Ventoux Sud non disponible Station fermée 0/7 0 cm 0 cm
Sauze-Super Sauze non disponible N.C. 0/36 0 cm 0 cm
La Colmiane non disponible 0/21 0 cm 0 cm
Sainte-Anne La Condamine non disponible 0/13 0 cm 0 cm
La Foux d'Allos non disponible NC 0/40 0 cm 0 cm
Val d'Allos - Le Seignus non disponible NC 0/24 0 cm 0 cm
Serre Eyraud non disponible N.C. 0/8 0 cm 0 cm
Larche non disponible 0/4 0 cm 0 cm
publicité

 

Page réalisée en partenariat avec - © Ski France